Wetterdaten: Woche 19.05.14 - 25.05.14 (KW21)
Datum Zeit Temp. Aussen +5cm Feuchte Auss Luftdruck Regen Sonnenschein Regendauer UV Solar Windben
19.05.2014 00:00 12,6 C 10,3 C 91 % 1009,0 hPa 0,0 l/m 0,00 h 0,00 h 0,0 UV-I 0 W/m 0,0 km/h (0 Bft)
19.05.2014 01:00 12,0 C 10,0 C 94 % 1008,6 hPa 0,0 l/m 0,00 h 0,00 h 0,0 UV-I 0 W/m 0,0 km/h (0 Bft)
19.05.2014 02:00 11,4 C 9,4 C 95 % 1008,3 hPa 0,0 l/m 0,00 h 0,00 h 0,0 UV-I 0 W/m 0,0 km/h (0 Bft)
19.05.2014 03:00 11,3 C 8,9 C 93 % 1008,0 hPa 0,0 l/m 0,00 h 0,00 h 0,0 UV-I 0 W/m 0,0 km/h (0 Bft)
19.05.2014 04:00 11,7 C 9,4 C 91 % 1007,9 hPa 0,0 l/m 0,00 h 0,00 h 0,0 UV-I 0 W/m 1,5 km/h (1 Bft)
19.05.2014 05:00 11,7 C 10,0 C 91 % 1007,7 hPa 0,0 l/m 0,00 h 0,00 h 0,0 UV-I 9 W/m 2,7 km/h (1 Bft)
19.05.2014 06:00 11,3 C 10,0 C 93 % 1007,7 hPa 0,0 l/m 0,00 h 0,00 h 0,0 UV-I 26 W/m 1,4 km/h (1 Bft)
19.05.2014 07:00 12,6 C 11,4 C 90 % 1007,6 hPa 0,0 l/m 0,00 h 0,00 h 0,0 UV-I 70 W/m 12,9 km/h (3 Bft)
19.05.2014 08:00 14,6 C 12,8 C 86 % 1007,5 hPa 0,0 l/m 0,97 h 0,00 h 0,5 UV-I 328 W/m 12,2 km/h (2 Bft)
19.05.2014 09:00 17,8 C 15,6 C 77 % 1007,5 hPa 0,0 l/m 0,97 h 0,00 h 1,1 UV-I 481 W/m 11,7 km/h (2 Bft)
19.05.2014 10:00 20,6 C 20,3 C 70 % 1007,4 hPa 0,0 l/m 0,97 h 0,00 h 2,2 UV-I 621 W/m 6,0 km/h (2 Bft)
19.05.2014 11:00 22,5 C 25,5 C 62 % 1007,2 hPa 0,0 l/m 0,97 h 0,00 h 3,4 UV-I 728 W/m 4,7 km/h (1 Bft)
19.05.2014 12:00 24,0 C 27,2 C 56 % 1006,9 hPa 0,0 l/m 0,97 h 0,00 h 3,9 UV-I 809 W/m 9,1 km/h (2 Bft)
19.05.2014 13:00 24,7 C 25,0 C 50 % 1006,5 hPa 0,0 l/m 0,97 h 0,00 h 2,8 UV-I 836 W/m 10,6 km/h (2 Bft)
19.05.2014 14:00 25,3 C 25,3 C 49 % 1006,4 hPa 0,0 l/m 0,93 h 0,00 h 3,8 UV-I 814 W/m 10,7 km/h (2 Bft)
19.05.2014 15:00 25,4 C 27,0 C 49 % 1006,2 hPa 0,0 l/m 0,83 h 0,00 h 2,9 UV-I 685 W/m 11,2 km/h (2 Bft)
19.05.2014 16:00 25,4 C 26,2 C 48 % 1006,0 hPa 0,0 l/m 0,67 h 0,00 h 2,0 UV-I 496 W/m 8,6 km/h (2 Bft)
19.05.2014 17:00 25,3 C 23,4 C 48 % 1005,9 hPa 0,0 l/m 0,53 h 0,00 h 1,3 UV-I 340 W/m 9,5 km/h (2 Bft)
19.05.2014 18:00 25,2 C 22,7 C 47 % 1005,8 hPa 0,0 l/m 0,27 h 0,00 h 0,7 UV-I 164 W/m 8,1 km/h (2 Bft)
19.05.2014 19:00 24,5 C 21,1 C 49 % 1005,8 hPa 0,0 l/m 0,00 h 0,00 h 0,0 UV-I 46 W/m 3,5 km/h (1 Bft)
19.05.2014 20:00 23,5 C 19,4 C 52 % 1006,0 hPa 0,0 l/m 0,00 h 0,00 h 0,0 UV-I 26 W/m 1,9 km/h (1 Bft)
19.05.2014 21:00 21,4 C 17,1 C 60 % 1006,5 hPa 0,0 l/m 0,07 h 0,00 h 0,0 UV-I 10 W/m 0,3 km/h (0 Bft)
19.05.2014 22:00 19,6 C 16,2 C 68 % 1007,1 hPa 0,0 l/m 0,00 h 0,00 h 0,0 UV-I 0 W/m 0,0 km/h (0 Bft)
19.05.2014 23:00 17,8 C 14,6 C 75 % 1007,2 hPa 0,0 l/m 0,00 h 0,00 h 0,0 UV-I 0 W/m 0,0 km/h (0 Bft)
20.05.2014 00:00 16,9 C 13,4 C 75 % 1007,4 hPa 0,0 l/m 0,00 h 0,00 h 0,0 UV-I 0 W/m 0,0 km/h (0 Bft)
20.05.2014 01:00 16,2 C 13,2 C 76 % 1007,8 hPa 0,0 l/m 0,00 h 0,00 h 0,0 UV-I 0 W/m 1,1 km/h (0 Bft)
20.05.2014 02:00 15,2 C 12,8 C 79 % 1008,3 hPa 0,0 l/m 0,00 h 0,00 h 0,0 UV-I 0 W/m 0,7 km/h (0 Bft)
20.05.2014 03:00 14,8 C 12,8 C 81 % 1008,7 hPa 0,0 l/m 0,00 h 0,00 h 0,0 UV-I 0 W/m 1,2 km/h (1 Bft)
20.05.2014 04:00 14,3 C 12,5 C 83 % 1009,1 hPa 0,0 l/m 0,00 h 0,00 h 0,0 UV-I 0 W/m 0,9 km/h (0 Bft)
20.05.2014 05:00 14,2 C 12,8 C 84 % 1009,4 hPa 0,0 l/m 0,07 h 0,00 h 0,0 UV-I 10 W/m 1,3 km/h (1 Bft)
20.05.2014 06:00 15,0 C 13,7 C 83 % 1009,7 hPa 0,0 l/m 0,00 h 0,00 h 0,0 UV-I 31 W/m 3,8 km/h (1 Bft)
20.05.2014 07:00 16,0 C 14,9 C 81 % 1010,1 hPa 0,0 l/m 0,00 h 0,00 h 0,0 UV-I 85 W/m 5,4 km/h (1 Bft)
20.05.2014 08:00 17,6 C 16,8 C 79 % 1010,5 hPa 0,0 l/m 0,10 h 0,00 h 0,0 UV-I 181 W/m 5,9 km/h (2 Bft)
20.05.2014 09:00 19,3 C 18,6 C 75 % 1010,9 hPa 0,0 l/m 0,00 h 0,00 h 0,5 UV-I 232 W/m 5,5 km/h (1 Bft)
20.05.2014 10:00 21,3 C 20,6 C 72 % 1011,0 hPa 0,0 l/m 0,50 h 0,00 h 1,4 UV-I 437 W/m 9,2 km/h (2 Bft)
20.05.2014 11:00 22,6 C 23,8 C 68 % 1011,1 hPa 0,0 l/m 0,67 h 0,00 h 2,4 UV-I 565 W/m 7,5 km/h (2 Bft)
20.05.2014 12:00 25,7 C 28,1 C 55 % 1010,7 hPa 0,0 l/m 0,90 h 0,00 h 3,8 UV-I 785 W/m 10,0 km/h (2 Bft)
20.05.2014 13:00 26,6 C 26,5 C 53 % 1010,5 hPa 0,0 l/m 0,97 h 0,00 h 2,8 UV-I 794 W/m 15,4 km/h (3 Bft)
20.05.2014 14:00 27,7 C 27,2 C 50 % 1010,4 hPa 0,0 l/m 0,97 h 0,00 h 4,1 UV-I 763 W/m 18,1 km/h (3 Bft)
20.05.2014 15:00 28,0 C 28,8 C 47 % 1010,1 hPa 0,0 l/m 0,90 h 0,00 h 3,3 UV-I 661 W/m 17,9 km/h (3 Bft)
20.05.2014 16:00 27,2 C 26,7 C 47 % 1009,8 hPa 0,0 l/m 0,17 h 0,00 h 1,3 UV-I 270 W/m 16,6 km/h (3 Bft)
20.05.2014 17:00 27,1 C 25,9 C 50 % 1009,8 hPa 0,0 l/m 0,77 h 0,00 h 1,2 UV-I 387 W/m 14,8 km/h (3 Bft)
20.05.2014 18:00 27,1 C 25,2 C 44 % 1009,6 hPa 0,0 l/m 0,23 h 0,00 h 0,8 UV-I 235 W/m 13,0 km/h (3 Bft)
20.05.2014 19:00 25,9 C 23,4 C 46 % 1009,8 hPa 0,0 l/m 0,00 h 0,00 h 0,5 UV-I 74 W/m 5,1 km/h (1 Bft)
20.05.2014 20:00 24,5 C 21,4 C 51 % 1010,0 hPa 0,0 l/m 0,00 h 0,00 h 0,0 UV-I 34 W/m 0,5 km/h (0 Bft)
20.05.2014 21:00 22,8 C 19,3 C 61 % 1009,9 hPa 0,0 l/m 0,00 h 0,00 h 0,0 UV-I 7 W/m 0,0 km/h (0 Bft)
20.05.2014 22:00 21,4 C 18,4 C 67 % 1010,2 hPa 0,0 l/m 0,00 h 0,00 h 0,0 UV-I 0 W/m 0,0 km/h (0 Bft)
20.05.2014 23:00 20,5 C 17,5 C 69 % 1010,3 hPa 0,0 l/m 0,00 h 0,00 h 0,0 UV-I 0 W/m 0,0 km/h (0 Bft)
21.05.2014 00:00 19,6 C 16,7 C 72 % 1010,4 hPa 0,0 l/m 0,00 h 0,00 h 0,0 UV-I 0 W/m 0,0 km/h (0 Bft)
21.05.2014 01:00 19,6 C 17,1 C 71 % 1011,0 hPa 0,0 l/m 0,00 h 0,00 h 0,0 UV-I 0 W/m 5,2 km/h (1 Bft)
21.05.2014 02:00 18,1 C 16,2 C 76 % 1011,5 hPa 0,0 l/m 0,00 h 0,00 h 0,0 UV-I 0 W/m 5,1 km/h (1 Bft)
21.05.2014 03:00 16,3 C 14,5 C 82 % 1011,8 hPa 0,0 l/m 0,00 h 0,00 h 0,0 UV-I 0 W/m 0,4 km/h (0 Bft)
21.05.2014 04:00 15,4 C 13,8 C 86 % 1012,1 hPa 0,0 l/m 0,00 h 0,00 h 0,0 UV-I 0 W/m 0,0 km/h (0 Bft)
21.05.2014 05:00 15,2 C 13,4 C 88 % 1012,1 hPa 0,0 l/m 0,00 h 0,00 h 0,0 UV-I 10 W/m 0,0 km/h (0 Bft)
21.05.2014 06:00 15,1 C 13,7 C 89 % 1012,1 hPa 0,0 l/m 0,17 h 0,00 h 0,0 UV-I 52 W/m 0,0 km/h (0 Bft)
21.05.2014 07:00 16,5 C 15,5 C 85 % 1012,2 hPa 0,0 l/m 0,00 h 0,13 h 0,0 UV-I 84 W/m 2,1 km/h (1 Bft)
21.05.2014 08:00 17,1 C 16,0 C 86 % 1012,0 hPa 0,0 l/m 0,23 h 0,13 h 0,6 UV-I 218 W/m 5,5 km/h (1 Bft)
21.05.2014 09:00 18,5 C 17,9 C 81 % 1012,4 hPa 0,0 l/m 0,07 h 0,10 h 0,0 UV-I 190 W/m 7,4 km/h (2 Bft)
21.05.2014 10:00 19,3 C 18,9 C 80 % 1012,3 hPa 0,0 l/m 0,00 h 0,20 h 1,0 UV-I 239 W/m 5,2 km/h (1 Bft)
21.05.2014 11:00 20,4 C 20,3 C 73 % 1012,3 hPa 0,0 l/m 0,03 h 0,03 h 1,0 UV-I 285 W/m 11,2 km/h (2 Bft)
21.05.2014 12:00 21,0 C 21,3 C 69 % 1012,1 hPa 0,0 l/m 0,23 h 0,00 h 1,6 UV-I 371 W/m 13,7 km/h (3 Bft)
21.05.2014 13:00 21,0 C 20,5 C 69 % 1011,7 hPa 0,0 l/m 0,00 h 0,07 h 1,0 UV-I 221 W/m 5,1 km/h (1 Bft)
21.05.2014 14:00 22,3 C 22,3 C 65 % 1010,9 hPa 0,0 l/m 0,00 h 0,00 h 1,3 UV-I 289 W/m 3,2 km/h (1 Bft)
21.05.2014 15:00 23,1 C 22,6 C 62 % 1009,9 hPa 0,0 l/m 0,00 h 0,00 h 1,0 UV-I 244 W/m 6,9 km/h (2 Bft)
21.05.2014 16:00 23,1 C 22,0 C 64 % 1008,8 hPa 0,0 l/m 0,00 h 0,00 h 0,5 UV-I 163 W/m 4,5 km/h (1 Bft)
21.05.2014 17:00 23,3 C 22,4 C 64 % 1008,2 hPa 0,0 l/m 0,13 h 0,00 h 0,6 UV-I 215 W/m 3,2 km/h (1 Bft)
21.05.2014 18:00 23,9 C 22,8 C 65 % 1007,2 hPa 0,0 l/m 0,03 h 0,00 h 0,5 UV-I 185 W/m 4,1 km/h (1 Bft)
21.05.2014 19:00 23,7 C 21,7 C 66 % 1006,6 hPa 0,0 l/m 0,00 h 0,00 h 0,0 UV-I 62 W/m 2,1 km/h (1 Bft)
21.05.2014 20:00 23,2 C 20,2 C 64 % 1006,3 hPa 0,0 l/m 0,00 h 0,00 h 0,0 UV-I 13 W/m 1,3 km/h (1 Bft)
21.05.2014 21:00 22,4 C 19,0 C 66 % 1006,2 hPa 0,0 l/m 0,00 h 0,23 h 0,0 UV-I 7 W/m 2,2 km/h (1 Bft)
21.05.2014 22:00 21,7 C 17,9 C 71 % 1005,6 hPa 0,0 l/m 0,00 h 0,57 h 0,0 UV-I 0 W/m 4,4 km/h (1 Bft)
21.05.2014 23:00 22,4 C 19,8 C 63 % 1003,6 hPa 0,0 l/m 0,00 h 0,00 h 0,0 UV-I 0 W/m 13,8 km/h (3 Bft)
22.05.2014 00:00 22,2 C 19,7 C 62 % 1003,1 hPa 0,0 l/m 0,00 h 0,00 h 0,0 UV-I 0 W/m 14,0 km/h (3 Bft)
22.05.2014 01:00 21,9 C 19,6 C 62 % 1004,3 hPa 0,0 l/m 0,00 h 0,23 h 0,0 UV-I 0 W/m 18,7 km/h (3 Bft)
22.05.2014 02:00 19,9 C 17,3 C 76 % 1005,9 hPa 0,0 l/m 0,00 h 0,67 h 0,0 UV-I 0 W/m 4,0 km/h (1 Bft)
22.05.2014 03:00 18,0 C 15,2 C 88 % 1005,6 hPa 0,0 l/m 0,00 h 0,23 h 0,0 UV-I 0 W/m 0,4 km/h (0 Bft)
22.05.2014 04:00 18,0 C 15,2 C 85 % 1005,8 hPa 0,4 l/m 0,00 h 0,20 h 0,0 UV-I 0 W/m 10,6 km/h (2 Bft)
22.05.2014 05:00 16,6 C 14,3 C 90 % 1005,0 hPa 0,6 l/m 0,00 h 0,27 h 0,0 UV-I 10 W/m 3,8 km/h (1 Bft)
22.05.2014 06:00 16,1 C 14,0 C 92 % 1005,7 hPa 0,0 l/m 0,00 h 0,00 h 0,0 UV-I 36 W/m 0,2 km/h (0 Bft)
22.05.2014 07:00 16,4 C 14,2 C 89 % 1006,8 hPa 0,2 l/m 0,00 h 0,00 h 0,0 UV-I 48 W/m 0,4 km/h (0 Bft)
22.05.2014 08:00 16,3 C 14,0 C 81 % 1007,6 hPa 0,0 l/m 0,00 h 0,07 h 0,0 UV-I 101 W/m 3,6 km/h (1 Bft)
22.05.2014 09:00 17,3 C 15,1 C 75 % 1007,6 hPa 0,0 l/m 0,57 h 0,10 h 0,7 UV-I 321 W/m 3,6 km/h (1 Bft)
22.05.2014 10:00 18,5 C 17,4 C 69 % 1007,8 hPa 0,0 l/m 0,30 h 0,07 h 1,0 UV-I 355 W/m 5,7 km/h (1 Bft)
22.05.2014 11:00 19,5 C 19,9 C 64 % 1008,0 hPa 0,0 l/m 0,60 h 0,07 h 1,8 UV-I 482 W/m 7,8 km/h (2 Bft)
22.05.2014 12:00 20,6 C 21,5 C 61 % 1008,1 hPa 0,0 l/m 0,50 h 0,00 h 2,2 UV-I 536 W/m 8,1 km/h (2 Bft)
22.05.2014 13:00 22,4 C 23,2 C 58 % 1007,7 hPa 0,0 l/m 0,67 h 0,00 h 2,5 UV-I 592 W/m 8,4 km/h (2 Bft)
22.05.2014 14:00 23,5 C 23,7 C 56 % 1007,4 hPa 0,0 l/m 0,43 h 0,00 h 2,7 UV-I 497 W/m 6,1 km/h (2 Bft)
22.05.2014 15:00 24,4 C 25,0 C 57 % 1006,9 hPa 0,0 l/m 0,47 h 0,00 h 2,1 UV-I 458 W/m 4,0 km/h (1 Bft)
22.05.2014 16:00 24,3 C 23,5 C 55 % 1007,0 hPa 0,0 l/m 0,10 h 0,00 h 1,2 UV-I 235 W/m 7,4 km/h (2 Bft)
22.05.2014 17:00 20,6 C 17,0 C 65 % 1008,4 hPa 0,8 l/m 0,00 h 0,87 h 0,0 UV-I 47 W/m 23,2 km/h (4 Bft)
22.05.2014 18:00 15,8 C 13,3 C 85 % 1008,0 hPa 0,8 l/m 0,00 h 0,83 h 0,0 UV-I 38 W/m 10,3 km/h (2 Bft)
22.05.2014 19:00 15,4 C 13,3 C 90 % 1007,6 hPa 0,0 l/m 0,00 h 0,37 h 0,0 UV-I 25 W/m 12,0 km/h (2 Bft)
22.05.2014 20:00 15,5 C 13,3 C 90 % 1008,5 hPa 0,4 l/m 0,00 h 0,82 h 0,0 UV-I 5 W/m 16,2 km/h (3 Bft)
22.05.2014 21:00 15,0 C 12,9 C 90 % 1008,3 hPa 0,2 l/m 0,00 h 0,93 h 0,0 UV-I 0 W/m 12,1 km/h (2 Bft)
22.05.2014 22:00 14,4 C 12,6 C 93 % 1008,7 hPa 1,0 l/m 0,00 h 0,93 h 0,0 UV-I 0 W/m 14,7 km/h (3 Bft)
22.05.2014 23:00 13,7 C 12,2 C 95 % 1008,6 hPa 0,4 l/m 0,00 h 0,63 h 0,0 UV-I 0 W/m 9,6 km/h (2 Bft)
23.05.2014 00:00 13,3 C 12,0 C 96 % 1008,6 hPa 0,0 l/m 0,00 h 0,03 h 0,0 UV-I 0 W/m 11,2 km/h (2 Bft)
23.05.2014 01:00 13,4 C 12,0 C 96 % 1008,3 hPa 0,0 l/m 0,00 h 0,00 h 0,0 UV-I 0 W/m 6,4 km/h (2 Bft)
23.05.2014 02:00 13,3 C 11,9 C 96 % 1008,1 hPa 0,0 l/m 0,00 h 0,00 h 0,0 UV-I 0 W/m 3,3 km/h (1 Bft)
23.05.2014 03:00 13,0 C 11,7 C 97 % 1007,9 hPa 0,0 l/m 0,00 h 0,00 h 0,0 UV-I 0 W/m 1,6 km/h (1 Bft)
23.05.2014 04:00 13,2 C 11,9 C 98 % 1007,8 hPa 0,0 l/m 0,00 h 0,00 h 0,0 UV-I 0 W/m 2,7 km/h (1 Bft)
23.05.2014 05:00 13,1 C 11,7 C 98 % 1007,2 hPa 0,0 l/m 0,00 h 0,00 h 0,0 UV-I 7 W/m 1,9 km/h (1 Bft)
23.05.2014 06:00 13,1 C 12,0 C 98 % 1007,7 hPa 0,0 l/m 0,00 h 0,00 h 0,0 UV-I 20 W/m 3,4 km/h (1 Bft)
23.05.2014 07:00 13,5 C 12,2 C 97 % 1008,2 hPa 0,0 l/m 0,00 h 0,10 h 0,0 UV-I 25 W/m 4,4 km/h (1 Bft)
23.05.2014 08:00 13,9 C 12,7 C 97 % 1008,7 hPa 0,4 l/m 0,00 h 0,83 h 0,0 UV-I 61 W/m 2,7 km/h (1 Bft)
23.05.2014 09:00 14,6 C 13,7 C 96 % 1008,9 hPa 0,0 l/m 0,00 h 0,17 h 0,0 UV-I 132 W/m 1,6 km/h (1 Bft)
23.05.2014 10:00 15,3 C 14,1 C 92 % 1009,5 hPa 0,0 l/m 0,00 h 0,53 h 0,6 UV-I 203 W/m 3,4 km/h (1 Bft)
23.05.2014 11:00 15,7 C 14,5 C 89 % 1009,7 hPa 0,0 l/m 0,00 h 0,00 h 0,7 UV-I 205 W/m 4,2 km/h (1 Bft)
23.05.2014 12:00 16,4 C 15,6 C 86 % 1010,0 hPa 0,0 l/m 0,00 h 0,00 h 0,6 UV-I 181 W/m 1,0 km/h (0 Bft)
23.05.2014 13:00 17,2 C 16,7 C 80 % 1010,3 hPa 0,0 l/m 0,00 h 0,17 h 0,8 UV-I 257 W/m 4,6 km/h (1 Bft)
23.05.2014 14:00 15,7 C 14,0 C 89 % 1010,6 hPa 0,6 l/m 0,00 h 0,77 h 0,9 UV-I 159 W/m 3,8 km/h (1 Bft)
23.05.2014 15:00 16,9 C 16,5 C 84 % 1010,6 hPa 0,0 l/m 0,50 h 0,27 h 2,2 UV-I 548 W/m 2,4 km/h (1 Bft)
23.05.2014 16:00 19,2 C 17,8 C 71 % 1010,6 hPa 0,0 l/m 0,93 h 0,00 h 2,2 UV-I 630 W/m 3,7 km/h (1 Bft)
23.05.2014 17:00 19,7 C 17,8 C 69 % 1010,3 hPa 0,0 l/m 0,93 h 0,00 h 1,3 UV-I 518 W/m 7,1 km/h (2 Bft)
23.05.2014 18:00 19,2 C 16,8 C 68 % 1009,9 hPa 0,0 l/m 0,33 h 0,00 h 0,6 UV-I 189 W/m 5,9 km/h (2 Bft)
23.05.2014 19:00 18,9 C 16,5 C 68 % 1010,0 hPa 0,0 l/m 0,00 h 0,00 h 0,0 UV-I 37 W/m 2,5 km/h (1 Bft)
23.05.2014 20:00 17,7 C 14,6 C 74 % 1010,0 hPa 0,0 l/m 0,00 h 0,00 h 0,0 UV-I 20 W/m 0,0 km/h (0 Bft)
23.05.2014 21:00 16,1 C 13,1 C 81 % 1010,3 hPa 0,0 l/m 0,00 h 0,00 h 0,0 UV-I 7 W/m 0,0 km/h (0 Bft)
23.05.2014 22:00 15,1 C 12,1 C 84 % 1010,6 hPa 0,0 l/m 0,00 h 0,00 h 0,0 UV-I 0 W/m 0,0 km/h (0 Bft)
23.05.2014 23:00 13,9 C 11,4 C 89 % 1010,6 hPa 0,0 l/m 0,00 h 0,00 h 0,0 UV-I 0 W/m 0,0 km/h (0 Bft)
24.05.2014 00:00 12,9 C 10,8 C 93 % 1010,8 hPa 0,0 l/m 0,00 h 0,00 h 0,0 UV-I 0 W/m 0,0 km/h (0 Bft)
24.05.2014 01:00 12,1 C 10,2 C 94 % 1010,9 hPa 0,0 l/m 0,00 h 0,00 h 0,0 UV-I 0 W/m 0,0 km/h (0 Bft)
24.05.2014 02:00 11,7 C 9,9 C 96 % 1010,8 hPa 0,0 l/m 0,00 h 0,00 h 0,0 UV-I 0 W/m 0,0 km/h (0 Bft)
24.05.2014 03:00 11,4 C 9,5 C 96 % 1010,8 hPa 0,0 l/m 0,00 h 0,00 h 0,0 UV-I 0 W/m 0,0 km/h (0 Bft)
24.05.2014 04:00 11,9 C 10,2 C 96 % 1011,1 hPa 0,0 l/m 0,00 h 0,00 h 0,0 UV-I 0 W/m 0,7 km/h (0 Bft)
24.05.2014 05:00 11,6 C 10,1 C 96 % 1011,5 hPa 0,0 l/m 0,00 h 0,00 h 0,0 UV-I 11 W/m 2,4 km/h (1 Bft)
24.05.2014 06:00 12,3 C 11,3 C 97 % 1011,4 hPa 0,0 l/m 0,00 h 0,00 h 0,0 UV-I 41 W/m 4,9 km/h (1 Bft)
24.05.2014 07:00 13,5 C 12,1 C 92 % 1011,9 hPa 0,2 l/m 0,00 h 0,17 h 0,0 UV-I 66 W/m 6,0 km/h (2 Bft)
24.05.2014 08:00 14,8 C 13,6 C 88 % 1012,7 hPa 0,0 l/m 0,30 h 0,00 h 0,0 UV-I 219 W/m 6,2 km/h (2 Bft)
24.05.2014 09:00 16,6 C 15,3 C 78 % 1013,2 hPa 0,0 l/m 0,33 h 0,00 h 0,5 UV-I 280 W/m 13,6 km/h (3 Bft)
24.05.2014 10:00 16,4 C 16,3 C 78 % 1013,7 hPa 0,0 l/m 0,27 h 0,00 h 0,9 UV-I 347 W/m 13,8 km/h (3 Bft)
24.05.2014 11:00 16,2 C 16,1 C 76 % 1014,2 hPa 0,0 l/m 0,00 h 0,00 h 1,0 UV-I 297 W/m 9,4 km/h (2 Bft)
24.05.2014 12:00 17,3 C 17,8 C 70 % 1014,6 hPa 0,0 l/m 0,30 h 0,00 h 1,9 UV-I 391 W/m 10,1 km/h (2 Bft)
24.05.2014 13:00 18,1 C 18,3 C 65 % 1014,6 hPa 0,0 l/m 0,13 h 0,00 h 1,8 UV-I 380 W/m 12,4 km/h (3 Bft)
24.05.2014 14:00 18,8 C 18,9 C 62 % 1014,5 hPa 0,0 l/m 0,03 h 0,00 h 1,6 UV-I 327 W/m 11,0 km/h (2 Bft)
24.05.2014 15:00 18,7 C 18,1 C 62 % 1014,5 hPa 0,0 l/m 0,07 h 0,00 h 1,5 UV-I 266 W/m 9,4 km/h (2 Bft)
24.05.2014 16:00 18,9 C 18,4 C 58 % 1014,5 hPa 0,0 l/m 0,07 h 0,00 h 1,3 UV-I 284 W/m 10,3 km/h (2 Bft)
24.05.2014 17:00 19,3 C 18,2 C 55 % 1014,7 hPa 0,0 l/m 0,53 h 0,00 h 1,1 UV-I 428 W/m 11,9 km/h (2 Bft)
24.05.2014 18:00 18,8 C 17,7 C 56 % 1014,8 hPa 0,0 l/m 0,20 h 0,00 h 0,7 UV-I 228 W/m 11,2 km/h (2 Bft)
24.05.2014 19:00 18,0 C 16,5 C 58 % 1015,2 hPa 0,0 l/m 0,00 h 0,00 h 0,0 UV-I 64 W/m 9,6 km/h (2 Bft)
24.05.2014 20:00 17,1 C 15,1 C 59 % 1015,8 hPa 0,0 l/m 0,00 h 0,00 h 0,0 UV-I 28 W/m 3,8 km/h (1 Bft)
24.05.2014 21:00 15,5 C 12,6 C 64 % 1016,3 hPa 0,0 l/m 0,00 h 0,00 h 0,0 UV-I 9 W/m 0,4 km/h (0 Bft)
24.05.2014 22:00 13,5 C 10,8 C 74 % 1016,8 hPa 0,0 l/m 0,00 h 0,00 h 0,0 UV-I 0 W/m 0,0 km/h (0 Bft)
24.05.2014 23:00 12,3 C 9,8 C 80 % 1017,1 hPa 0,0 l/m 0,00 h 0,00 h 0,0 UV-I 0 W/m 0,0 km/h (0 Bft)
25.05.2014 00:00 11,5 C 9,4 C 82 % 1017,4 hPa 0,0 l/m 0,00 h 0,00 h 0,0 UV-I 0 W/m 0,1 km/h (0 Bft)
25.05.2014 01:00 11,0 C 9,2 C 83 % 1017,5 hPa 0,0 l/m 0,00 h 0,00 h 0,0 UV-I 0 W/m 0,2 km/h (0 Bft)
25.05.2014 02:00 10,6 C 9,1 C 86 % 1017,7 hPa 0,0 l/m 0,00 h 0,00 h 0,0 UV-I 0 W/m 1,2 km/h (1 Bft)
25.05.2014 03:00 10,7 C 9,5 C 87 % 1017,9 hPa 0,0 l/m 0,00 h 0,00 h 0,0 UV-I 0 W/m 6,6 km/h (2 Bft)
25.05.2014 04:00 10,4 C 9,2 C 88 % 1018,3 hPa 0,0 l/m 0,00 h 0,00 h 0,0 UV-I 0 W/m 1,6 km/h (1 Bft)
25.05.2014 05:00 9,8 C 8,6 C 90 % 1018,7 hPa 0,0 l/m 0,00 h 0,00 h 0,0 UV-I 8 W/m 3,1 km/h (1 Bft)
25.05.2014 06:00 9,8 C 8,5 C 91 % 1019,0 hPa 0,0 l/m 0,00 h 0,00 h 0,0 UV-I 21 W/m 0,5 km/h (0 Bft)
25.05.2014 07:00 11,1 C 9,8 C 89 % 1019,5 hPa 0,0 l/m 0,10 h 0,00 h 0,0 UV-I 56 W/m 4,9 km/h (1 Bft)
25.05.2014 08:00 13,8 C 11,9 C 81 % 1019,8 hPa 0,0 l/m 0,97 h 0,00 h 0,5 UV-I 360 W/m 3,9 km/h (1 Bft)
25.05.2014 09:00 16,8 C 15,1 C 72 % 1020,0 hPa 0,0 l/m 0,97 h 0,00 h 1,2 UV-I 505 W/m 4,2 km/h (1 Bft)
25.05.2014 10:00 18,5 C 22,0 C 67 % 1020,0 hPa 0,0 l/m 0,97 h 0,00 h 2,3 UV-I 621 W/m 5,3 km/h (1 Bft)
25.05.2014 11:00 20,1 C 24,0 C 60 % 1020,0 hPa 0,0 l/m 0,97 h 0,00 h 3,5 UV-I 763 W/m 7,2 km/h (2 Bft)
25.05.2014 12:00 20,9 C 24,5 C 55 % 1019,8 hPa 0,0 l/m 0,93 h 0,00 h 4,0 UV-I 783 W/m 6,7 km/h (2 Bft)
25.05.2014 13:00 21,8 C 22,7 C 53 % 1019,4 hPa 0,0 l/m 0,90 h 0,00 h 2,6 UV-I 755 W/m 8,8 km/h (2 Bft)
25.05.2014 14:00 22,3 C 23,1 C 53 % 1019,2 hPa 0,0 l/m 0,70 h 0,00 h 3,2 UV-I 660 W/m 5,6 km/h (1 Bft)
25.05.2014 15:00 22,0 C 22,4 C 54 % 1018,8 hPa 0,0 l/m 0,47 h 0,00 h 2,3 UV-I 505 W/m 7,9 km/h (2 Bft)
25.05.2014 16:00 21,9 C 21,7 C 53 % 1018,7 hPa 0,0 l/m 0,60 h 0,00 h 1,9 UV-I 480 W/m 4,1 km/h (1 Bft)
25.05.2014 17:00 22,4 C 21,5 C 52 % 1018,5 hPa 0,0 l/m 0,93 h 0,00 h 1,3 UV-I 465 W/m 6,6 km/h (2 Bft)
25.05.2014 18:00 21,6 C 20,4 C 53 % 1018,3 hPa 0,0 l/m 0,07 h 0,00 h 0,5 UV-I 182 W/m 5,2 km/h (1 Bft)
25.05.2014 19:00 21,1 C 19,9 C 56 % 1018,2 hPa 0,0 l/m 0,00 h 0,00 h 0,0 UV-I 105 W/m 7,0 km/h (2 Bft)
25.05.2014 20:00 20,1 C 18,7 C 60 % 1018,2 hPa 0,0 l/m 0,00 h 0,00 h 0,0 UV-I 49 W/m 2,3 km/h (1 Bft)
25.05.2014 21:00 18,8 C 17,2 C 64 % 1018,4 hPa 0,0 l/m 0,00 h 0,00 h 0,0 UV-I 12 W/m 1,6 km/h (1 Bft)
25.05.2014 22:00 17,4 C 15,6 C 68 % 1018,7 hPa 0,0 l/m 0,00 h 0,00 h 0,0 UV-I 0 W/m 0,0 km/h (0 Bft)
25.05.2014 23:00 16,3 C 14,3 C 72 % 1018,6 hPa 0,0 l/m 0,00 h 0,00 h 0,0 UV-I 0 W/m 0,3 km/h (0 Bft)
Min-Datum _ 25.05.14 25.05.14 20.05.14 22.05.14 - - - - - 19.05.14
_ Min-Zeit 06:06 05:32 18:02 01:10 - - - - - 00:00
Minimum _ 9,4 C 8,3 C 42 % 1002,7 hPa - - - - - 0,0 km/h (0 Bft)
Max-Datum _ 20.05.14 20.05.14 23.05.14 25.05.14 22.05.14 19.05.14 21.05.14 22.05.14 24.05.14 22.05.14
_ Max-Zeit 15:48 15:48 04:05 09:34 22:24 08:00 07:52 14:30 15:10 01:48
Maximum _ 28,5 C 32,8 C 98 % 1020,1 hPa 1,0 l/m 0,03 h 0,03 h 4,7 UV-I 1055 W/m 43,8 km/h
S-SO (6 Bft)
Durchschnitt _ 18,0 C 16,7 C 74 % 1010,8 hPa #6,0 l/m #33:22 h #11:47 h 1,7 UV-I 270 W/m 5,4 km/h (1 Bft)
© 2014 W. Hausmann